Meath Environmental Platform

Observations

Time Sensor AQI SAQ Temp °C Hum % Pres Pa CO μg/m³ H₂S μg/m³ NO μg/m³ NO₂ μg/m³ O₃ μg/m³ SO₂ μg/m³ CO₂e PPM VOC PPM PM1 μg/m³ PM2.5 μg/m³ PM4 μg/m³ PM10 μg/m³ TPS µm
Wednesday 12 August 2026
12:39 Trim Patrick St 2 34.2 35 69,535 0 0 0.37 8.93 83.72 15.79 4.57 9.72 10.7
12:38 Trim Patrick St 2 34.1 36 69,549 0 0 0.37 10.81 103.95 16.14 3.71 9.65 10.62
12:37 Trim Patrick St 2 34 39 69,535 0 0 0.38 8.5 72.76 14.49 3.71 9.49 10.44
12:36 Trim Market St 2 39.3 29 66,932 0.14 0 0 13.42 86.43 0 0.71 3.91 4.3
12:35 Trim Market St 2 39 29 66,926 0.15 0 0 12.11 83.17 0 0.71 4.44 4.88
12:35 Trim Patrick St 2 33.7 37 69,501 0 0 0.41 11.62 105.34 15.01 2.86 8.81 9.69
12:34 Trim Market St 2 38.7 29 66,918 0.15 0 0 13.25 77.39 0 0.71 3.88 4.27
12:34 Trim Patrick St 2 33.6 39 69,507 0 0 0.42 8.16 72.7 15.08 4.57 10.25 11.28
12:33 Trim Market St 2 38.5 29 66,884 0.1 0 0 13.19 77.79 0 1.43 4.42 4.87
12:33 Trim Patrick St 2 33.5 37 69,489 0 0 0.43 12 126.58 14.9 3.71 10.39 11.43
12:31 Trim Patrick St 2 33.2 39 69,469 0 0 0.46 12.1 83.62 14.69 5.43 11.03 12.14
12:30 Trim Patrick St 2 33.1 39 69,464 0 0 0.47 11.78 121.65 15.86 3.71 10.25 11.27
12:29 Trim Patrick St 2 32.9 38 69,460 0 0 0.5 11.15 82.42 13.22 4.57 10.32 11.35
12:28 Trim Patrick St 2 32.8 38 69,460 0 0 0.51 8.96 74.72 13.32 4.57 10.33 11.37
12:27 Trim Patrick St 2 32.7 38 69,456 0 0 0.52 10.74 69.45 12.6 2.86 7.93 8.72
12:24 Trim Patrick St 2 32.4 39 69,424 0 0 0.56 11.25 107.67 14.5 4.57 10.25 11.28
12:23 Trim Patrick St 2 32.3 39 69,414 0 0 0.56 10.41 96.97 14.41 5.43 12.62 13.88
12:21 Trim Market St 2 35.6 33 66,531 0 0 0.25 12.47 88.96 0 1.43 4.26 4.69
12:20 Trim Market St 2 35.3 33 66,513 0 0 0.25 12.54 120.57 0 2.14 5.33 5.86
12:20 Trim Patrick St 2 32 43 69,426 0 0 0.57 10.2 68.4 12.7 3.71 9.98 10.98